createdAt,value
2019-03-03T00:00:39.568Z,76.10
2019-03-03T00:01:39.561Z,76.34
2019-03-03T00:02:39.560Z,76.20
2019-03-03T00:03:39.538Z,76.24
2019-03-03T00:04:39.527Z,76.20
2019-03-03T00:05:39.517Z,76.41
2019-03-03T00:06:39.512Z,76.10
2019-03-03T00:07:39.503Z,76.41
2019-03-03T00:08:39.484Z,76.34
2019-03-03T00:09:39.474Z,75.62
2019-03-03T00:10:39.460Z,76.04
2019-03-03T00:11:39.452Z,75.93
2019-03-03T00:12:39.452Z,75.83
2019-03-03T00:13:39.441Z,75.49
2019-03-03T00:14:39.418Z,75.69
2019-03-03T00:15:39.413Z,75.49
2019-03-03T00:16:39.396Z,75.79
2019-03-03T00:17:39.397Z,75.18
2019-03-03T00:18:39.377Z,74.98
2019-03-03T00:19:39.364Z,75.69
2019-03-03T00:20:39.359Z,75.28
2019-03-03T00:21:39.349Z,75.59
2019-03-03T00:22:39.344Z,74.66
2019-03-03T00:23:39.321Z,75.49
2019-03-03T00:24:39.310Z,75.01
2019-03-03T00:25:39.958Z,74.77
2019-03-03T00:26:39.295Z,75.21
2019-03-03T00:27:39.295Z,74.87
2019-03-03T00:28:39.271Z,74.98
2019-03-03T00:29:39.261Z,74.60
2019-03-03T00:30:39.249Z,74.36
2019-03-03T00:31:39.255Z,74.08
2019-03-03T00:32:39.255Z,73.95
2019-03-03T00:33:39.216Z,73.54
2019-03-03T00:34:39.207Z,73.44
2019-03-03T00:35:39.199Z,73.54
2019-03-03T00:36:39.182Z,73.44
2019-03-03T00:37:39.182Z,73.44
2019-03-03T00:38:39.176Z,73.44
2019-03-03T00:39:39.152Z,73.74
2019-03-03T00:40:39.187Z,73.95
2019-03-03T00:41:39.133Z,73.95
2019-03-03T00:42:39.132Z,74.15
2019-03-03T00:43:39.109Z,74.57
2019-03-03T00:44:39.104Z,74.36
2019-03-03T00:45:39.086Z,74.36
2019-03-03T00:46:39.077Z,74.57
2019-03-03T00:47:39.075Z,74.46
2019-03-03T00:48:39.054Z,74.46
2019-03-03T00:49:39.043Z,74.46
2019-03-03T00:50:39.034Z,74.46
2019-03-03T00:51:39.021Z,74.05
2019-03-03T00:52:39.034Z,74.15
2019-03-03T00:53:39.001Z,74.05
2019-03-03T00:54:38.997Z,74.36
2019-03-03T00:55:38.981Z,74.26
2019-03-03T00:56:38.971Z,74.26
2019-03-03T00:57:38.976Z,74.15
2019-03-03T00:58:38.948Z,73.85
2019-03-03T00:59:38.937Z,73.74
2019-03-03T01:00:38.926Z,73.74
2019-03-03T01:01:38.915Z,73.74
2019-03-03T01:02:38.926Z,73.74
2019-03-03T01:03:38.893Z,73.85
2019-03-03T01:04:38.885Z,73.64
2019-03-03T01:05:38.871Z,73.95
2019-03-03T01:06:38.862Z,73.64
2019-03-03T01:07:38.858Z,73.74
2019-03-03T01:08:38.843Z,73.64
2019-03-03T01:09:38.838Z,73.54
2019-03-03T01:10:38.818Z,73.85
2019-03-03T01:11:38.808Z,73.74
2019-03-03T01:12:38.829Z,73.71
2019-03-03T01:13:38.786Z,73.95
2019-03-03T01:14:38.779Z,73.71
2019-03-03T01:15:38.764Z,73.85
2019-03-03T01:16:38.756Z,73.74
2019-03-03T01:17:38.750Z,73.64
2019-03-03T01:18:38.736Z,73.85
2019-03-03T01:19:38.724Z,73.85
2019-03-03T01:20:38.712Z,73.74
2019-03-03T01:21:38.708Z,73.64
2019-03-03T01:22:38.707Z,73.85
2019-03-03T01:23:38.690Z,73.85
2019-03-03T01:24:38.668Z,73.85
2019-03-03T01:25:38.668Z,73.74
2019-03-03T01:26:38.646Z,73.64
2019-03-03T01:27:38.637Z,73.85
2019-03-03T01:28:38.637Z,73.74
2019-03-03T01:29:38.623Z,73.64
2019-03-03T01:30:38.604Z,73.85
2019-03-03T01:31:38.594Z,73.74
2019-03-03T01:32:38.584Z,73.54
2019-03-03T01:33:38.584Z,73.44
2019-03-03T01:34:38.562Z,73.54
2019-03-03T01:35:38.557Z,73.44
2019-03-03T01:36:38.541Z,72.92
2019-03-03T01:37:38.530Z,73.13
2019-03-03T01:38:38.535Z,73.23
2019-03-03T01:39:38.523Z,73.44
2019-03-03T01:40:38.496Z,73.23
2019-03-03T01:41:38.492Z,73.13
2019-03-03T01:42:38.477Z,73.23
2019-03-03T01:43:38.501Z,73.44
2019-03-03T01:44:38.453Z,73.44
2019-03-03T01:45:38.459Z,73.19
2019-03-03T01:46:38.434Z,73.13
2019-03-03T01:47:38.422Z,73.13
2019-03-03T01:48:38.422Z,73.13
2019-03-03T01:49:38.414Z,73.13
2019-03-03T01:50:38.390Z,73.19
2019-03-03T01:51:38.381Z,73.23
2019-03-03T01:52:38.371Z,73.02
2019-03-03T01:53:38.368Z,72.89
2019-03-03T01:54:38.347Z,72.92
2019-03-03T01:55:38.337Z,73.13
2019-03-03T01:56:38.329Z,73.10
2019-03-03T01:57:38.314Z,72.99
2019-03-03T01:58:38.316Z,73.13
2019-03-03T01:59:38.293Z,73.23
2019-03-03T02:00:38.283Z,72.92
2019-03-03T02:01:38.272Z,73.02
2019-03-03T02:02:38.262Z,73.23
2019-03-03T02:03:38.266Z,72.82
2019-03-03T02:04:38.239Z,72.82
2019-03-03T02:05:38.232Z,72.61
2019-03-03T02:06:38.220Z,72.51
2019-03-03T02:07:38.207Z,72.31
2019-03-03T02:08:38.208Z,72.31
2019-03-03T02:09:38.187Z,72.31
2019-03-03T02:10:38.178Z,72.20
2019-03-03T02:11:38.168Z,72.31
2019-03-03T02:12:38.157Z,71.97
2019-03-03T02:13:38.158Z,72.00
2019-03-03T02:14:38.133Z,71.80
2019-03-03T02:15:38.123Z,71.66
2019-03-03T02:16:38.132Z,72.10
2019-03-03T02:17:38.108Z,71.76
2019-03-03T02:18:38.104Z,71.59
2019-03-03T02:19:38.079Z,71.80
2019-03-03T02:20:38.070Z,72.00
2019-03-03T02:21:38.059Z,72.27
2019-03-03T02:22:38.049Z,71.90
2019-03-03T02:23:38.048Z,72.00
2019-03-03T02:24:38.026Z,71.90
2019-03-03T02:25:38.017Z,71.76
2019-03-03T02:26:38.013Z,71.59
2019-03-03T02:27:38.002Z,71.80
2019-03-03T02:28:37.995Z,71.59
2019-03-03T02:29:37.978Z,71.66
2019-03-03T02:30:37.968Z,71.28
2019-03-03T02:31:37.956Z,71.28
2019-03-03T02:32:37.958Z,71.35
2019-03-03T02:33:37.942Z,71.39
2019-03-03T02:34:37.980Z,71.08
2019-03-03T02:35:37.910Z,71.35
2019-03-03T02:36:37.898Z,70.97
2019-03-03T02:37:37.887Z,70.94
2019-03-03T02:38:37.898Z,70.87
2019-03-03T02:39:37.874Z,70.12
2019-03-03T02:40:37.855Z,70.77
2019-03-03T02:41:37.846Z,70.22
2019-03-03T02:42:37.840Z,70.12
2019-03-03T02:43:37.835Z,70.12
2019-03-03T02:44:37.815Z,70.26
2019-03-03T02:45:37.803Z,69.61
2019-03-03T02:46:37.791Z,70.12
2019-03-03T02:47:37.787Z,70.15
2019-03-03T02:48:37.770Z,69.51
2019-03-03T02:49:37.770Z,69.71
2019-03-03T02:50:37.810Z,69.81
2019-03-03T02:51:37.745Z,70.15
2019-03-03T02:52:37.731Z,69.61
2019-03-03T02:53:37.724Z,69.95
2019-03-03T02:54:37.717Z,69.74
2019-03-03T02:55:37.694Z,69.51
2019-03-03T02:56:37.685Z,69.81
2019-03-03T02:57:37.673Z,69.64
2019-03-03T02:58:37.662Z,70.15
2019-03-03T02:59:37.662Z,69.74
2019-03-03T03:00:37.639Z,70.12
2019-03-03T03:01:37.641Z,69.95
2019-03-03T03:02:37.623Z,70.26
2019-03-03T03:03:37.613Z,70.26
2019-03-03T03:04:37.616Z,70.26
2019-03-03T03:05:37.586Z,70.15
2019-03-03T03:06:37.584Z,70.46
2019-03-03T03:07:37.568Z,70.56
2019-03-03T03:08:37.554Z,70.26
2019-03-03T03:09:37.555Z,70.46
2019-03-03T03:10:37.537Z,70.15
2019-03-03T03:11:37.529Z,70.15
2019-03-03T03:12:37.513Z,70.77
2019-03-03T03:13:37.502Z,70.05
2019-03-03T03:14:37.502Z,70.26
2019-03-03T03:15:40.373Z,70.70
2019-03-03T03:16:37.469Z,70.97
2019-03-03T03:17:37.460Z,70.26
2019-03-03T03:18:37.451Z,71.01
2019-03-03T03:19:37.456Z,70.90
2019-03-03T03:20:37.426Z,70.77
2019-03-03T03:21:37.421Z,70.87
2019-03-03T03:22:37.409Z,70.56
2019-03-03T03:23:37.396Z,70.26
2019-03-03T03:24:37.395Z,70.26
2019-03-03T03:25:37.433Z,70.26
2019-03-03T03:26:37.363Z,70.26
2019-03-03T03:27:37.352Z,70.26
2019-03-03T03:28:37.341Z,70.36
2019-03-03T03:29:37.349Z,70.56
2019-03-03T03:30:37.320Z,70.26
2019-03-03T03:31:37.312Z,70.26
2019-03-03T03:32:37.299Z,70.26
2019-03-03T03:33:37.292Z,70.67
2019-03-03T03:34:37.302Z,70.46
2019-03-03T03:35:37.266Z,70.56
2019-03-03T03:36:37.265Z,70.56
2019-03-03T03:37:37.245Z,70.56
2019-03-03T03:38:37.234Z,70.29
2019-03-03T03:39:37.240Z,70.77
2019-03-03T03:40:37.228Z,70.67
2019-03-03T03:41:37.205Z,70.87
2019-03-03T03:42:37.197Z,70.77
2019-03-03T03:43:37.188Z,71.11
2019-03-03T03:44:37.176Z,70.70
2019-03-03T03:45:37.164Z,70.80
2019-03-03T03:46:37.172Z,70.39
2019-03-03T03:47:37.150Z,71.31
2019-03-03T03:48:37.132Z,71.31
2019-03-03T03:49:37.131Z,71.42
2019-03-03T03:50:37.185Z,71.31
2019-03-03T03:51:37.102Z,71.72
2019-03-03T03:52:37.095Z,71.42
2019-03-03T03:53:37.076Z,71.42
2019-03-03T03:54:37.074Z,71.72
2019-03-03T03:55:37.053Z,71.31
2019-03-03T03:56:37.041Z,71.11
2019-03-03T03:57:37.032Z,71.35
2019-03-03T03:58:37.034Z,71.86
2019-03-03T03:59:37.047Z,71.66
2019-03-03T04:00:36.999Z,71.62
2019-03-03T04:01:37.002Z,71.66
2019-03-03T04:02:36.978Z,71.86
2019-03-03T04:03:36.968Z,71.86
2019-03-03T04:04:36.957Z,71.66
2019-03-03T04:05:36.953Z,71.86
2019-03-03T04:06:36.948Z,71.86
2019-03-03T04:07:36.925Z,71.97
2019-03-03T04:08:36.927Z,72.17
2019-03-03T04:09:36.903Z,72.17
2019-03-03T04:10:36.902Z,72.17
2019-03-03T04:11:36.886Z,72.38
2019-03-03T04:12:36.869Z,72.38
2019-03-03T04:13:36.862Z,72.38
2019-03-03T04:14:36.848Z,72.58
2019-03-03T04:15:36.848Z,72.58
2019-03-03T04:16:36.826Z,72.68
2019-03-03T04:17:36.816Z,72.58
2019-03-03T04:18:36.817Z,72.99
2019-03-03T04:19:36.795Z,72.78
2019-03-03T04:20:36.794Z,73.10
2019-03-03T04:21:36.781Z,73.10
2019-03-03T04:22:36.763Z,73.19
2019-03-03T04:23:36.752Z,72.99
2019-03-03T04:24:36.748Z,73.30
2019-03-03T04:25:36.745Z,73.19
2019-03-03T04:26:36.721Z,73.54
2019-03-03T04:27:36.712Z,73.44
2019-03-03T04:28:36.703Z,73.64
2019-03-03T04:29:36.698Z,73.64
2019-03-03T04:30:36.688Z,73.61
2019-03-03T04:31:36.674Z,73.54
2019-03-03T04:32:36.657Z,73.74
2019-03-03T04:33:36.646Z,73.95
2019-03-03T04:34:36.635Z,73.85
2019-03-03T04:35:36.635Z,73.95
2019-03-03T04:36:36.613Z,73.74
2019-03-03T04:37:36.616Z,73.74
2019-03-03T04:38:36.592Z,73.74
2019-03-03T04:39:36.582Z,73.74
2019-03-03T04:40:36.581Z,73.95
2019-03-03T04:41:36.560Z,74.26
2019-03-03T04:42:36.551Z,74.26
2019-03-03T04:43:36.547Z,74.36
2019-03-03T04:44:36.527Z,74.26
2019-03-03T04:45:36.533Z,73.81
2019-03-03T04:46:36.506Z,74.05
2019-03-03T04:47:36.498Z,73.74
2019-03-03T04:48:36.485Z,73.71
2019-03-03T04:49:36.479Z,73.95
2019-03-03T04:50:36.490Z,73.81
2019-03-03T04:51:36.461Z,73.85
2019-03-03T04:52:36.442Z,73.91
2019-03-03T04:53:36.434Z,73.54
2019-03-03T04:54:36.426Z,73.74
2019-03-03T04:55:36.439Z,73.64
2019-03-03T04:56:36.400Z,73.64
2019-03-03T04:57:36.391Z,73.64
2019-03-03T04:58:36.380Z,73.44
2019-03-03T04:59:36.377Z,73.95
2019-03-03T05:00:36.379Z,73.54
2019-03-03T05:01:36.350Z,73.95
2019-03-03T05:02:36.338Z,73.74
2019-03-03T05:03:36.324Z,73.74
2019-03-03T05:04:36.313Z,73.95
2019-03-03T05:05:36.303Z,73.95
2019-03-03T05:06:36.304Z,73.85
2019-03-03T05:07:36.282Z,73.85
2019-03-03T05:08:36.274Z,73.74
2019-03-03T05:09:36.260Z,73.85
2019-03-03T05:10:36.250Z,74.15
2019-03-03T05:11:36.257Z,73.95
2019-03-03T05:12:36.231Z,74.05
2019-03-03T05:13:36.218Z,74.15
2019-03-03T05:14:36.207Z,74.29
2019-03-03T05:15:36.196Z,74.08
2019-03-03T05:16:36.202Z,74.08
2019-03-03T05:17:36.198Z,74.40
2019-03-03T05:18:36.166Z,74.40
2019-03-03T05:19:36.156Z,74.40
2019-03-03T05:20:36.144Z,74.29
2019-03-03T05:21:36.144Z,74.19
2019-03-03T05:22:36.126Z,74.50
2019-03-03T05:23:36.110Z,74.29
2019-03-03T05:24:36.100Z,74.29
2019-03-03T05:25:36.092Z,74.19
2019-03-03T05:26:36.093Z,74.29
2019-03-03T05:27:36.071Z,74.19
2019-03-03T05:28:36.069Z,74.29
2019-03-03T05:29:36.053Z,74.70
2019-03-03T05:30:36.038Z,74.50
2019-03-03T05:31:36.039Z,74.40
2019-03-03T05:32:36.018Z,74.40
2019-03-03T05:33:36.005Z,74.08
2019-03-03T05:34:35.996Z,74.60
2019-03-03T05:35:35.984Z,74.12
2019-03-03T05:36:35.983Z,74.91
2019-03-03T05:37:35.964Z,74.53
2019-03-03T05:38:35.980Z,74.80
2019-03-03T05:39:35.941Z,74.53
2019-03-03T05:40:35.931Z,74.60
2019-03-03T05:41:35.940Z,74.60
2019-03-03T05:42:35.911Z,74.63
2019-03-03T05:43:35.899Z,74.70
2019-03-03T05:44:35.894Z,74.63
2019-03-03T05:45:35.880Z,74.91
2019-03-03T05:46:35.877Z,74.63
2019-03-03T05:47:35.864Z,74.53
2019-03-03T05:48:35.845Z,74.91
2019-03-03T05:49:35.834Z,74.74
2019-03-03T05:50:35.827Z,75.15
2019-03-03T05:51:35.844Z,74.63
2019-03-03T05:52:35.806Z,75.04
2019-03-03T05:53:35.794Z,74.84
2019-03-03T05:54:35.795Z,75.04
2019-03-03T05:55:35.771Z,74.95
2019-03-03T05:56:35.772Z,74.74
2019-03-03T05:57:35.757Z,74.84
2019-03-03T05:58:35.739Z,74.74
2019-03-03T05:59:35.727Z,75.04
2019-03-03T06:00:35.717Z,74.70
2019-03-03T06:01:35.716Z,75.04
2019-03-03T06:02:35.696Z,74.74
2019-03-03T06:03:35.688Z,74.95
2019-03-03T06:04:35.675Z,74.53
2019-03-03T06:05:35.669Z,74.50
2019-03-03T06:06:35.680Z,74.43
2019-03-03T06:07:35.644Z,74.53
2019-03-03T06:08:35.631Z,74.50
2019-03-03T06:09:35.620Z,74.19
2019-03-03T06:10:35.611Z,74.50
2019-03-03T06:11:35.600Z,74.60
2019-03-03T06:12:35.611Z,74.08
2019-03-03T06:13:35.585Z,74.19
2019-03-03T06:14:35.577Z,74.08
2019-03-03T06:15:35.558Z,74.08
2019-03-03T06:16:35.546Z,73.88
2019-03-03T06:17:35.566Z,73.85
2019-03-03T06:18:35.533Z,73.85
2019-03-03T06:19:35.515Z,73.88
2019-03-03T06:20:35.502Z,73.85
2019-03-03T06:21:35.495Z,73.78
2019-03-03T06:22:35.503Z,73.44
2019-03-03T06:23:35.473Z,73.64
2019-03-03T06:24:35.466Z,74.15
2019-03-03T06:25:35.454Z,73.95
2019-03-03T06:26:35.441Z,74.26
2019-03-03T06:27:35.442Z,73.85
2019-03-03T06:28:35.432Z,73.95
2019-03-03T06:29:35.410Z,73.50
2019-03-03T06:30:35.400Z,73.54
2019-03-03T06:31:35.417Z,72.78
2019-03-03T06:32:35.389Z,73.19
2019-03-03T06:33:35.368Z,72.78
2019-03-03T06:34:35.354Z,72.99
2019-03-03T06:35:35.370Z,72.78
2019-03-03T06:36:35.334Z,72.58
2019-03-03T06:37:35.341Z,72.68
2019-03-03T06:38:35.330Z,72.58
2019-03-03T06:39:35.301Z,72.27
2019-03-03T06:40:35.290Z,72.27
2019-03-03T06:41:35.282Z,72.38
2019-03-03T06:42:35.279Z,72.48
2019-03-03T06:43:35.258Z,72.38
2019-03-03T06:44:35.253Z,72.68
2019-03-03T06:45:35.240Z,71.86
2019-03-03T06:46:35.225Z,72.06
2019-03-03T06:47:35.238Z,72.06
2019-03-03T06:48:35.210Z,72.27
2019-03-03T06:49:35.194Z,72.38
2019-03-03T06:50:35.185Z,72.17
2019-03-03T06:51:35.173Z,71.93
2019-03-03T06:52:35.177Z,71.66
2019-03-03T06:53:35.178Z,71.66
2019-03-03T06:54:35.143Z,71.83
2019-03-03T06:55:35.139Z,71.66
2019-03-03T06:56:35.120Z,71.86
2019-03-03T06:57:35.123Z,71.66
2019-03-03T06:58:35.138Z,71.86
2019-03-03T06:59:35.088Z,71.66
2019-03-03T07:00:35.081Z,71.66
2019-03-03T07:01:35.067Z,71.76
2019-03-03T07:02:35.067Z,71.86
2019-03-03T07:03:35.043Z,71.86
2019-03-03T07:04:35.035Z,71.55
2019-03-03T07:05:35.043Z,71.97
2019-03-03T07:06:35.013Z,71.52
2019-03-03T07:07:35.013Z,71.45
2019-03-03T07:08:35.009Z,71.76
2019-03-03T07:09:34.982Z,71.76
2019-03-03T07:10:34.970Z,71.66
2019-03-03T07:11:34.960Z,71.25
2019-03-03T07:12:34.979Z,71.21
2019-03-03T07:13:34.961Z,71.72
2019-03-03T07:14:34.932Z,71.31
2019-03-03T07:15:34.931Z,71.21
2019-03-03T07:16:34.907Z,70.90
2019-03-03T07:17:34.907Z,71.31
2019-03-03T07:18:34.885Z,71.21
2019-03-03T07:19:34.875Z,70.29
2019-03-03T07:20:34.865Z,70.80
2019-03-03T07:21:34.856Z,70.60
2019-03-03T07:22:34.861Z,70.18
2019-03-03T07:23:34.832Z,70.46
2019-03-03T07:24:34.821Z,69.95
2019-03-03T07:25:34.810Z,70.36
2019-03-03T07:26:34.798Z,69.95
2019-03-03T07:27:34.795Z,69.54
2019-03-03T07:28:34.780Z,69.95
2019-03-03T07:29:34.771Z,69.20
2019-03-03T07:30:34.757Z,68.99
2019-03-03T07:31:34.747Z,69.20
2019-03-03T07:32:34.740Z,69.71
2019-03-03T07:33:34.747Z,68.79
2019-03-03T07:34:34.712Z,68.79
2019-03-03T07:35:34.709Z,68.27
2019-03-03T07:36:34.692Z,67.94
2019-03-03T07:37:34.681Z,68.07
2019-03-03T07:38:34.678Z,67.73
2019-03-03T07:39:34.664Z,67.43
2019-03-03T07:40:34.654Z,67.94
2019-03-03T07:41:34.639Z,68.14
2019-03-03T07:42:34.629Z,67.63
2019-03-03T07:43:34.651Z,67.43
2019-03-03T07:44:34.606Z,67.49
2019-03-03T07:45:34.598Z,67.49
2019-03-03T07:46:34.585Z,67.49
2019-03-03T07:47:34.576Z,67.29
2019-03-03T07:48:34.580Z,67.60
2019-03-03T07:49:34.560Z,67.40
2019-03-03T07:50:34.572Z,67.08
2019-03-03T07:51:34.530Z,67.19
2019-03-03T07:52:34.522Z,67.19
2019-03-03T07:53:34.521Z,65.96
2019-03-03T07:54:34.501Z,66.57
2019-03-03T07:55:34.488Z,65.24
2019-03-03T07:56:34.477Z,66.47
2019-03-03T07:57:34.470Z,65.62
2019-03-03T07:58:34.486Z,66.34
2019-03-03T07:59:34.449Z,65.72
2019-03-03T08:00:34.435Z,65.93
2019-03-03T08:01:34.441Z,66.03
2019-03-03T08:02:34.415Z,66.03
2019-03-03T08:03:34.420Z,65.83
2019-03-03T08:04:34.396Z,66.03
2019-03-03T08:05:34.384Z,65.93
2019-03-03T08:06:34.373Z,66.13
2019-03-03T08:07:34.380Z,65.62
2019-03-03T08:08:34.387Z,65.83
2019-03-03T08:09:34.340Z,66.03
2019-03-03T08:10:34.328Z,66.13
2019-03-03T08:11:34.320Z,66.03
2019-03-03T08:12:34.308Z,66.10
2019-03-03T08:13:34.310Z,66.10
2019-03-03T08:14:34.292Z,65.28
2019-03-03T08:15:34.294Z,65.39
2019-03-03T08:16:34.264Z,65.69
2019-03-03T08:17:34.267Z,65.59
2019-03-03T08:18:34.257Z,65.08
2019-03-03T08:19:34.233Z,65.28
2019-03-03T08:20:34.222Z,65.90
2019-03-03T08:21:34.214Z,66.00
2019-03-03T08:22:34.201Z,66.10
2019-03-03T08:23:34.202Z,65.59
2019-03-03T08:24:34.179Z,65.49
2019-03-03T08:25:34.169Z,65.49
2019-03-03T08:26:34.168Z,65.59
2019-03-03T08:27:34.158Z,65.59
2019-03-03T08:28:34.210Z,65.25
2019-03-03T08:29:34.134Z,65.39
2019-03-03T08:30:34.116Z,65.80
2019-03-03T08:31:34.107Z,66.00
2019-03-03T08:32:34.094Z,65.59
2019-03-03T08:33:34.095Z,66.10
2019-03-03T08:34:34.073Z,65.49
2019-03-03T08:35:34.073Z,66.10
2019-03-03T08:36:34.064Z,66.07
2019-03-03T08:37:34.045Z,65.87
2019-03-03T08:38:34.058Z,65.66
2019-03-03T08:39:34.022Z,65.36
2019-03-03T08:40:34.009Z,65.46
2019-03-03T08:41:34.011Z,65.25
2019-03-03T08:42:33.999Z,65.56
2019-03-03T08:43:34.005Z,65.25
2019-03-03T08:44:33.980Z,65.56
2019-03-03T08:45:33.955Z,65.56
2019-03-03T08:46:33.952Z,65.87
2019-03-03T08:47:33.936Z,65.36
2019-03-03T08:48:33.928Z,65.77
2019-03-03T08:49:33.941Z,65.25
2019-03-03T08:50:33.904Z,65.15
2019-03-03T08:51:33.891Z,65.56
2019-03-03T08:52:33.879Z,65.56
2019-03-03T08:53:33.874Z,65.77
2019-03-03T08:54:33.861Z,65.36
2019-03-03T08:55:33.850Z,65.46
2019-03-03T08:56:33.838Z,65.66
2019-03-03T08:57:33.828Z,65.36
2019-03-03T08:58:33.815Z,65.36
2019-03-03T08:59:33.816Z,65.87
2019-03-03T09:00:33.794Z,65.46
2019-03-03T09:01:33.783Z,65.02
2019-03-03T09:02:33.774Z,65.02
2019-03-03T09:03:33.763Z,65.25
2019-03-03T09:04:33.754Z,65.15
2019-03-03T09:05:33.752Z,65.33
2019-03-03T09:06:33.729Z,65.25
2019-03-03T09:07:33.734Z,65.02
2019-03-03T09:08:33.713Z,64.61
2019-03-03T09:09:33.705Z,64.61
2019-03-03T09:10:33.691Z,65.22
2019-03-03T09:11:33.679Z,64.20
2019-03-03T09:12:33.666Z,64.30
2019-03-03T09:13:33.655Z,64.92
2019-03-03T09:14:33.674Z,65.02
2019-03-03T09:15:33.652Z,64.92
2019-03-03T09:16:33.623Z,65.02
2019-03-03T09:17:33.636Z,64.30
2019-03-03T09:18:33.609Z,64.61
2019-03-03T09:19:33.605Z,64.40
2019-03-03T09:20:33.581Z,64.51
2019-03-03T09:21:33.570Z,64.48
2019-03-03T09:22:33.562Z,64.07
2019-03-03T09:23:33.552Z,63.59
2019-03-03T09:24:33.558Z,63.56
2019-03-03T09:25:33.528Z,63.66
2019-03-03T09:26:33.516Z,63.83
2019-03-03T09:27:33.517Z,63.43
2019-03-03T09:28:33.497Z,62.92
2019-03-03T09:29:33.500Z,62.81
2019-03-03T09:30:33.474Z,62.61
2019-03-03T09:31:33.464Z,62.61
2019-03-03T09:32:33.450Z,62.51
2019-03-03T09:33:33.466Z,62.54
2019-03-03T09:34:33.469Z,62.63
2019-03-03T09:35:33.419Z,62.43
2019-03-03T09:36:33.410Z,62.84
2019-03-03T09:37:33.403Z,62.84
2019-03-03T09:38:33.389Z,63.04
2019-03-03T09:39:33.386Z,62.74
2019-03-03T09:40:33.415Z,62.63
2019-03-03T09:41:33.357Z,62.20
2019-03-03T09:42:33.347Z,62.43
2019-03-03T09:43:33.332Z,62.74
2019-03-03T09:44:33.323Z,62.81
2019-03-03T09:45:33.327Z,62.10
2019-03-03T09:46:33.301Z,62.20
2019-03-03T09:47:33.289Z,62.10
2019-03-03T09:48:33.280Z,62.33
2019-03-03T09:49:33.267Z,61.99
2019-03-03T09:50:33.271Z,62.10
2019-03-03T09:51:33.248Z,61.99
2019-03-03T09:52:33.238Z,61.82
2019-03-03T09:53:33.232Z,62.33
2019-03-03T09:54:33.218Z,62.23
2019-03-03T09:55:33.220Z,61.99
2019-03-03T09:56:33.195Z,62.43
2019-03-03T09:57:33.183Z,61.72
2019-03-03T09:58:33.172Z,62.20
2019-03-03T09:59:33.164Z,62.10
2019-03-03T10:00:33.167Z,62.33
2019-03-03T10:01:33.146Z,62.33
2019-03-03T10:02:33.129Z,61.90
2019-03-03T10:03:33.116Z,62.10
2019-03-03T10:04:33.108Z,61.99
2019-03-03T10:05:33.111Z,61.90
2019-03-03T10:06:33.086Z,61.69
2019-03-03T10:07:33.073Z,61.49
2019-03-03T10:08:33.409Z,61.18
2019-03-03T10:09:33.053Z,60.97
2019-03-03T10:10:33.058Z,61.15
2019-03-03T10:11:33.031Z,60.44
2019-03-03T10:12:33.025Z,60.71
2019-03-03T10:13:33.009Z,60.82
2019-03-03T10:14:32.998Z,60.51
2019-03-03T10:15:32.991Z,60.61
2019-03-03T10:16:32.977Z,60.10
2019-03-03T10:17:32.966Z,60.30
2019-03-03T10:18:32.956Z,60.28
2019-03-03T10:19:32.945Z,59.66
2019-03-03T10:20:32.957Z,60.07
2019-03-03T10:21:32.925Z,59.46
2019-03-03T10:22:32.916Z,59.46
2019-03-03T10:23:32.901Z,59.16
2019-03-03T10:24:32.891Z,59.36
2019-03-03T10:25:32.889Z,59.46
2019-03-03T10:26:34.970Z,59.46
2019-03-03T10:27:32.861Z,59.46
2019-03-03T10:28:32.849Z,58.92
2019-03-03T10:29:32.837Z,58.72
2019-03-03T10:30:32.829Z,58.80
2019-03-03T10:31:32.821Z,57.78
2019-03-03T10:32:32.807Z,58.39
2019-03-03T10:33:32.813Z,57.78
2019-03-03T10:34:32.823Z,57.26
2019-03-03T10:35:32.807Z,57.37
2019-03-03T10:36:32.774Z,57.57
2019-03-03T10:37:32.751Z,58.28
2019-03-03T10:38:36.026Z,58.18
2019-03-03T10:39:32.729Z,57.78
2019-03-03T10:40:32.719Z,57.78
2019-03-03T10:41:32.737Z,57.54
2019-03-03T10:42:32.703Z,57.65
2019-03-03T10:43:32.688Z,57.95
2019-03-03T10:44:32.676Z,57.44
2019-03-03T10:45:32.668Z,57.44
2019-03-03T10:46:32.666Z,57.47
2019-03-03T10:47:32.646Z,57.37
2019-03-03T10:48:32.641Z,57.21
2019-03-03T10:49:32.622Z,56.90
2019-03-03T10:50:32.610Z,56.20
2019-03-03T10:51:32.820Z,55.99
2019-03-03T10:52:32.591Z,55.76
2019-03-03T10:53:32.584Z,55.96
2019-03-03T10:54:32.572Z,55.66
2019-03-03T10:55:32.563Z,55.05
2019-03-03T10:56:32.559Z,55.07
2019-03-03T10:57:32.535Z,56.29
2019-03-03T10:58:32.526Z,56.42
2019-03-03T10:59:32.513Z,56.32
2019-03-03T11:00:32.504Z,57.14
2019-03-03T11:01:32.504Z,56.52
2019-03-03T11:02:32.489Z,56.93
2019-03-03T11:03:32.472Z,57.34
2019-03-03T11:04:32.463Z,57.98
2019-03-03T11:05:32.450Z,57.67
2019-03-03T11:06:32.478Z,57.37
2019-03-03T11:07:32.428Z,57.37
2019-03-03T11:08:32.418Z,57.44
2019-03-03T11:09:32.408Z,57.44
2019-03-03T11:10:32.398Z,57.34
2019-03-03T11:11:32.385Z,58.15
2019-03-03T11:12:32.387Z,57.54
2019-03-03T11:13:32.363Z,57.44
2019-03-03T11:14:32.353Z,57.75
2019-03-03T11:15:32.341Z,57.24
2019-03-03T11:16:32.333Z,57.34
2019-03-03T11:17:32.331Z,57.34
2019-03-03T11:18:32.309Z,57.54
2019-03-03T11:19:32.299Z,57.54
2019-03-03T11:20:32.300Z,57.54
2019-03-03T11:21:32.277Z,57.34
2019-03-03T11:22:32.303Z,57.14
2019-03-03T11:23:32.274Z,57.65
2019-03-03T11:24:32.245Z,57.34
2019-03-03T11:25:32.236Z,57.04
2019-03-03T11:26:32.228Z,57.54
2019-03-03T11:27:32.215Z,57.11
2019-03-03T11:28:32.201Z,57.14
2019-03-03T11:29:32.191Z,57.11
2019-03-03T11:30:32.191Z,57.21
2019-03-03T11:31:32.171Z,57.44
2019-03-03T11:32:32.183Z,57.34
2019-03-03T11:33:32.153Z,57.54
2019-03-03T11:34:32.138Z,57.95
2019-03-03T11:35:32.126Z,57.67
2019-03-03T11:36:32.115Z,57.67
2019-03-03T11:37:32.110Z,57.37
2019-03-03T11:38:32.094Z,57.26
2019-03-03T11:39:32.093Z,57.37
2019-03-03T11:40:32.073Z,57.47
2019-03-03T11:41:32.061Z,57.26
2019-03-03T11:42:32.070Z,57.47
2019-03-03T11:43:32.040Z,57.67
2019-03-03T11:44:32.043Z,57.37
2019-03-03T11:45:32.019Z,57.57
2019-03-03T11:46:32.011Z,57.47
2019-03-03T11:47:32.028Z,57.47
2019-03-03T11:48:31.988Z,57.57
2019-03-03T11:49:31.975Z,57.37
2019-03-03T11:50:31.968Z,57.47
2019-03-03T11:51:31.959Z,58.11
2019-03-03T11:52:31.956Z,57.37
2019-03-03T11:53:31.949Z,57.37
2019-03-03T11:54:31.958Z,57.37
2019-03-03T11:55:31.927Z,57.44
2019-03-03T11:56:31.901Z,57.54
2019-03-03T11:57:31.902Z,57.04
2019-03-03T11:58:31.881Z,57.14
2019-03-03T11:59:31.869Z,57.44
2019-03-03T12:00:31.856Z,57.54
2019-03-03T12:01:31.847Z,57.44
2019-03-03T12:02:32.704Z,57.54
2019-03-03T12:03:31.824Z,57.34
2019-03-03T12:04:31.987Z,57.44
2019-03-03T12:05:31.803Z,57.54
2019-03-03T12:06:31.792Z,57.14
2019-03-03T12:07:31.786Z,57.24
2019-03-03T12:08:31.786Z,57.75
2019-03-03T12:09:31.760Z,57.44
2019-03-03T12:10:31.760Z,57.14
2019-03-03T12:11:31.741Z,57.04
2019-03-03T12:12:31.728Z,57.44
2019-03-03T12:13:31.729Z,57.65
2019-03-03T12:14:31.709Z,56.83
2019-03-03T12:15:31.696Z,56.83
2019-03-03T12:16:31.687Z,57.44
2019-03-03T12:17:31.673Z,57.24
2019-03-03T12:18:31.677Z,56.83
2019-03-03T12:19:31.668Z,56.93
2019-03-03T12:20:31.644Z,57.24
2019-03-03T12:21:31.632Z,56.83
2019-03-03T12:22:31.660Z,57.04
2019-03-03T12:23:31.623Z,57.24
2019-03-03T12:24:31.602Z,56.02
2019-03-03T12:25:31.591Z,56.93
2019-03-03T12:26:31.578Z,56.73
2019-03-03T12:27:31.565Z,56.63
2019-03-03T12:28:31.568Z,56.63
2019-03-03T12:29:31.594Z,56.63
2019-03-03T12:30:42.288Z,56.52
2019-03-03T12:31:31.524Z,56.52
2019-03-03T12:32:31.516Z,56.70
2019-03-03T12:33:31.520Z,56.50
2019-03-03T12:34:31.501Z,55.89
2019-03-03T12:35:31.481Z,54.97
2019-03-03T12:36:31.477Z,55.28
2019-03-03T12:37:31.458Z,55.15
2019-03-03T12:38:31.477Z,55.05
2019-03-03T12:39:31.460Z,55.25
2019-03-03T12:40:31.457Z,55.05
2019-03-03T12:41:31.416Z,54.72
2019-03-03T12:42:31.406Z,54.61
2019-03-03T12:43:31.405Z,53.47
2019-03-03T12:44:31.390Z,53.04
2019-03-03T12:45:31.371Z,52.58
2019-03-03T12:46:31.362Z,50.28
2019-03-03T12:47:31.350Z,48.90
2019-03-03T12:48:31.350Z,48.39
2019-03-03T12:49:31.329Z,48.39
2019-03-03T12:50:31.321Z,47.75
2019-03-03T12:51:31.310Z,47.31
2019-03-03T12:52:31.303Z,45.50